sensor_id;sensor_type;location;lat;lon;timestamp;pressure;altitude;pressure_sealevel;temperature;humidity
49813;BME280;35706;52.100;5.056;2022-07-29T00:00:08;101827.31;;;19.15;54.96
49813;BME280;35706;52.100;5.056;2022-07-29T00:02:34;101820.88;;;19.09;54.89
49813;BME280;35706;52.100;5.056;2022-07-29T00:05:00;101820.50;;;19.21;55.31
49813;BME280;35706;52.100;5.056;2022-07-29T00:07:25;101825.78;;;19.45;54.61
49813;BME280;35706;52.100;5.056;2022-07-29T00:09:51;101804.56;;;19.60;54.13
49813;BME280;35706;52.100;5.056;2022-07-29T00:12:17;101801.63;;;19.39;54.61
49813;BME280;35706;52.100;5.056;2022-07-29T00:14:42;101809.00;;;19.20;54.60
49813;BME280;35706;52.100;5.056;2022-07-29T00:17:07;101806.16;;;19.22;55.10
49813;BME280;35706;52.100;5.056;2022-07-29T00:19:33;101800.88;;;18.89;56.59
49813;BME280;35706;52.100;5.056;2022-07-29T00:21:59;101802.22;;;18.85;56.15
49813;BME280;35706;52.100;5.056;2022-07-29T00:24:24;101795.56;;;18.97;55.43
49813;BME280;35706;52.100;5.056;2022-07-29T00:26:50;101795.19;;;19.17;55.73
49813;BME280;35706;52.100;5.056;2022-07-29T00:29:15;101793.88;;;19.12;54.56
49813;BME280;35706;52.100;5.056;2022-07-29T00:31:40;101792.34;;;19.26;55.32
49813;BME280;35706;52.100;5.056;2022-07-29T00:34:06;101791.84;;;19.23;54.15
49813;BME280;35706;52.100;5.056;2022-07-29T00:36:51;101787.56;;;18.89;55.38
49813;BME280;35706;52.100;5.056;2022-07-29T00:39:16;101788.06;;;18.92;56.09
49813;BME280;35706;52.100;5.056;2022-07-29T00:41:41;101785.41;;;18.92;55.16
49813;BME280;35706;52.100;5.056;2022-07-29T00:44:07;101782.41;;;18.96;55.64
49813;BME280;35706;52.100;5.056;2022-07-29T00:46:32;101781.56;;;19.03;55.61
49813;BME280;35706;52.100;5.056;2022-07-29T00:48:57;101782.53;;;19.19;54.95
49813;BME280;35706;52.100;5.056;2022-07-29T00:51:25;101768.72;;;19.07;55.38
49813;BME280;35706;52.100;5.056;2022-07-29T00:53:51;101774.56;;;18.94;55.74
49813;BME280;35706;52.100;5.056;2022-07-29T00:56:17;101775.03;;;19.14;55.47
49813;BME280;35706;52.100;5.056;2022-07-29T00:58:43;101775.88;;;18.98;55.84
49813;BME280;35706;52.100;5.056;2022-07-29T01:01:10;101774.91;;;18.99;55.72
49813;BME280;35706;52.100;5.056;2022-07-29T01:03:35;101772.03;;;19.17;55.14
49813;BME280;35706;52.100;5.056;2022-07-29T01:06:00;101769.22;;;19.10;55.07
49813;BME280;35706;52.100;5.056;2022-07-29T01:08:26;101774.53;;;19.19;55.07
49813;BME280;35706;52.100;5.056;2022-07-29T01:10:51;101773.41;;;18.97;55.64
49813;BME280;35706;52.100;5.056;2022-07-29T01:13:18;101770.41;;;18.91;55.69
49813;BME280;35706;52.100;5.056;2022-07-29T01:15:49;101772.25;;;18.91;56.51
49813;BME280;35706;52.100;5.056;2022-07-29T01:18:22;101768.75;;;18.82;55.46
49813;BME280;35706;52.100;5.056;2022-07-29T01:23:40;101762.25;;;18.85;55.28
49813;BME280;35706;52.100;5.056;2022-07-29T01:26:35;101772.38;;;18.73;55.71
49813;BME280;35706;52.100;5.056;2022-07-29T01:29:11;101766.56;;;18.20;58.16
49813;BME280;35706;52.100;5.056;2022-07-29T01:32:01;101767.22;;;18.47;56.56
49813;BME280;35706;52.100;5.056;2022-07-29T01:34:34;101764.75;;;18.37;56.49
49813;BME280;35706;52.100;5.056;2022-07-29T01:37:08;101763.56;;;18.64;56.32
49813;BME280;35706;52.100;5.056;2022-07-29T01:39:38;101764.63;;;18.80;55.58
49813;BME280;35706;52.100;5.056;2022-07-29T01:42:15;101763.41;;;18.74;55.97
49813;BME280;35706;52.100;5.056;2022-07-29T01:44:54;101766.56;;;18.61;56.11
49813;BME280;35706;52.100;5.056;2022-07-29T01:47:23;101765.56;;;18.70;55.45
49813;BME280;35706;52.100;5.056;2022-07-29T01:49:52;101777.22;;;18.45;56.85
49813;BME280;35706;52.100;5.056;2022-07-29T01:52:31;101773.03;;;18.34;57.59
49813;BME280;35706;52.100;5.056;2022-07-29T01:55:04;101766.56;;;18.53;56.73
49813;BME280;35706;52.100;5.056;2022-07-29T01:57:33;101766.56;;;18.61;56.10
49813;BME280;35706;52.100;5.056;2022-07-29T02:00:00;101767.06;;;18.73;56.79
49813;BME280;35706;52.100;5.056;2022-07-29T02:02:26;101763.41;;;18.66;56.59
49813;BME280;35706;52.100;5.056;2022-07-29T02:04:53;101762.91;;;18.46;56.82
49813;BME280;35706;52.100;5.056;2022-07-29T02:07:21;101761.91;;;18.55;56.83
49813;BME280;35706;52.100;5.056;2022-07-29T02:09:49;101763.88;;;18.37;57.26
49813;BME280;35706;52.100;5.056;2022-07-29T02:12:17;101762.91;;;18.38;57.14
49813;BME280;35706;52.100;5.056;2022-07-29T02:14:48;101753.25;;;18.61;56.64
49813;BME280;35706;52.100;5.056;2022-07-29T02:17:21;101760.41;;;18.44;57.11
49813;BME280;35706;52.100;5.056;2022-07-29T02:19:49;101758.25;;;18.48;56.99
49813;BME280;35706;52.100;5.056;2022-07-29T02:22:16;101753.25;;;18.37;57.66
49813;BME280;35706;52.100;5.056;2022-07-29T02:24:44;101758.75;;;18.60;57.20
49813;BME280;35706;52.100;5.056;2022-07-29T02:27:10;101757.91;;;18.35;56.77
49813;BME280;35706;52.100;5.056;2022-07-29T02:29:37;101754.94;;;18.38;57.98
49813;BME280;35706;52.100;5.056;2022-07-29T02:32:05;101753.59;;;18.42;57.20
49813;BME280;35706;52.100;5.056;2022-07-29T02:34:33;101761.06;;;18.30;57.91
49813;BME280;35706;52.100;5.056;2022-07-29T02:36:59;101755.25;;;18.35;57.35
49813;BME280;35706;52.100;5.056;2022-07-29T02:39:26;101750.94;;;18.42;57.13
49813;BME280;35706;52.100;5.056;2022-07-29T02:42:08;101753.75;;;18.32;57.29
49813;BME280;35706;52.100;5.056;2022-07-29T02:44:36;101742.78;;;18.35;56.81
49813;BME280;35706;52.100;5.056;2022-07-29T02:52:28;101747.72;;;17.97;58.71
49813;BME280;35706;52.100;5.056;2022-07-29T02:55:02;101745.88;;;17.98;58.12
49813;BME280;35706;52.100;5.056;2022-07-29T02:57:36;101739.44;;;18.17;57.87
49813;BME280;35706;52.100;5.056;2022-07-29T03:00:07;101734.44;;;18.30;57.64
49813;BME280;35706;52.100;5.056;2022-07-29T03:02:36;101736.94;;;18.23;57.79
49813;BME280;35706;52.100;5.056;2022-07-29T03:05:03;101736.59;;;18.26;57.68
49813;BME280;35706;52.100;5.056;2022-07-29T03:07:30;101737.06;;;18.05;58.34
49813;BME280;35706;52.100;5.056;2022-07-29T03:09:56;101742.06;;;18.00;58.47
49813;BME280;35706;52.100;5.056;2022-07-29T03:12:22;101736.59;;;18.35;58.24
49813;BME280;35706;52.100;5.056;2022-07-29T03:14:48;101733.25;;;18.00;58.35
49813;BME280;35706;52.100;5.056;2022-07-29T03:17:14;101733.59;;;18.05;58.17
49813;BME280;35706;52.100;5.056;2022-07-29T03:19:40;101735.94;;;18.08;58.56
49813;BME280;35706;52.100;5.056;2022-07-29T03:22:05;101731.75;;;18.05;58.83
49813;BME280;35706;52.100;5.056;2022-07-29T03:24:34;101725.97;;;18.18;58.24
49813;BME280;35706;52.100;5.056;2022-07-29T03:26:59;101729.97;;;18.14;58.86
49813;BME280;35706;52.100;5.056;2022-07-29T03:29:25;101729.75;;;18.07;57.79
49813;BME280;35706;52.100;5.056;2022-07-29T03:31:51;101731.22;;;17.85;58.44
49813;BME280;35706;52.100;5.056;2022-07-29T03:34:17;101731.00;;;17.79;58.67
49813;BME280;35706;52.100;5.056;2022-07-29T03:36:42;101725.91;;;17.85;58.87
49813;BME280;35706;52.100;5.056;2022-07-29T03:39:08;101734.22;;;17.90;58.35
49813;BME280;35706;52.100;5.056;2022-07-29T03:41:36;101732.16;;;17.76;58.94
49813;BME280;35706;52.100;5.056;2022-07-29T03:44:05;101728.31;;;17.70;58.98
49813;BME280;35706;52.100;5.056;2022-07-29T03:46:33;101719.22;;;17.81;59.37
49813;BME280;35706;52.100;5.056;2022-07-29T03:49:03;101711.53;;;17.70;58.89
49813;BME280;35706;52.100;5.056;2022-07-29T03:51:28;101714.69;;;17.65;59.04
49813;BME280;35706;52.100;5.056;2022-07-29T03:53:54;101707.44;;;17.84;58.92
49813;BME280;35706;52.100;5.056;2022-07-29T03:56:21;101721.41;;;17.86;58.82
49813;BME280;35706;52.100;5.056;2022-07-29T03:58:50;101717.94;;;17.94;58.44
49813;BME280;35706;52.100;5.056;2022-07-29T04:01:17;101713.97;;;17.98;58.33
49813;BME280;35706;52.100;5.056;2022-07-29T04:03:43;101715.84;;;17.71;58.71
49813;BME280;35706;52.100;5.056;2022-07-29T04:06:10;101714.72;;;17.82;58.47
49813;BME280;35706;52.100;5.056;2022-07-29T04:08:36;101711.38;;;17.63;59.28
49813;BME280;35706;52.100;5.056;2022-07-29T04:11:01;101713.50;;;17.60;59.64
49813;BME280;35706;52.100;5.056;2022-07-29T04:13:27;101713.13;;;17.97;58.80
49813;BME280;35706;52.100;5.056;2022-07-29T04:15:52;101720.94;;;18.07;58.50
49813;BME280;35706;52.100;5.056;2022-07-29T04:18:18;101719.41;;;17.88;58.60
49813;BME280;35706;52.100;5.056;2022-07-29T04:20:43;101714.69;;;17.74;58.75
49813;BME280;35706;52.100;5.056;2022-07-29T04:23:09;101714.34;;;17.68;59.80
49813;BME280;35706;52.100;5.056;2022-07-29T04:25:37;101707.72;;;17.73;59.56
49813;BME280;35706;52.100;5.056;2022-07-29T04:28:02;101713.88;;;17.73;59.13
49813;BME280;35706;52.100;5.056;2022-07-29T04:30:29;101709.16;;;17.59;59.39
49813;BME280;35706;52.100;5.056;2022-07-29T04:32:55;101714.72;;;17.82;58.77
49813;BME280;35706;52.100;5.056;2022-07-29T04:35:20;101708.25;;;17.76;59.14
49813;BME280;35706;52.100;5.056;2022-07-29T04:37:46;101713.22;;;17.79;59.22
49813;BME280;35706;52.100;5.056;2022-07-29T04:40:12;101709.97;;;17.94;59.18
49813;BME280;35706;52.100;5.056;2022-07-29T04:42:38;101719.44;;;17.96;59.48
49813;BME280;35706;52.100;5.056;2022-07-29T04:45:04;101717.28;;;18.00;58.88
49813;BME280;35706;52.100;5.056;2022-07-29T04:47:29;101722.63;;;18.00;58.99
49813;BME280;35706;52.100;5.056;2022-07-29T04:49:54;101726.22;;;17.90;59.46
49813;BME280;35706;52.100;5.056;2022-07-29T04:52:21;101726.25;;;17.82;59.17
49813;BME280;35706;52.100;5.056;2022-07-29T04:54:46;101730.19;;;17.78;58.78
49813;BME280;35706;52.100;5.056;2022-07-29T04:57:12;101722.81;;;17.64;59.52
49813;BME280;35706;52.100;5.056;2022-07-29T04:59:37;101719.91;;;17.83;59.20
49813;BME280;35706;52.100;5.056;2022-07-29T05:02:02;101722.03;;;17.80;59.39
49813;BME280;35706;52.100;5.056;2022-07-29T05:04:28;101722.06;;;17.88;59.48
49813;BME280;35706;52.100;5.056;2022-07-29T05:06:53;101719.13;;;17.57;59.52
49813;BME280;35706;52.100;5.056;2022-07-29T05:09:18;101719.66;;;17.68;59.75
49813;BME280;35706;52.100;5.056;2022-07-29T05:11:44;101714.19;;;17.70;59.25
49813;BME280;35706;52.100;5.056;2022-07-29T05:14:09;101718.38;;;17.81;59.49
49813;BME280;35706;52.100;5.056;2022-07-29T05:16:34;101715.81;;;17.97;58.89
49813;BME280;35706;52.100;5.056;2022-07-29T05:19:00;101715.13;;;17.95;59.36
49813;BME280;35706;52.100;5.056;2022-07-29T05:21:25;101713.28;;;17.96;59.25
49813;BME280;35706;52.100;5.056;2022-07-29T05:23:50;101722.25;;;17.86;58.70
49813;BME280;35706;52.100;5.056;2022-07-29T05:26:16;101717.97;;;17.51;59.43
49813;BME280;35706;52.100;5.056;2022-07-29T05:28:41;101717.13;;;17.59;59.47
49813;BME280;35706;52.100;5.056;2022-07-29T05:31:06;101725.84;;;17.77;59.28
49813;BME280;35706;52.100;5.056;2022-07-29T05:33:31;101723.53;;;17.74;59.73
49813;BME280;35706;52.100;5.056;2022-07-29T05:35:57;101727.75;;;17.93;59.37
49813;BME280;35706;52.100;5.056;2022-07-29T05:38:22;101730.78;;;18.15;58.94
49813;BME280;35706;52.100;5.056;2022-07-29T05:40:48;101733.59;;;18.13;58.51
49813;BME280;35706;52.100;5.056;2022-07-29T05:43:13;101731.28;;;18.10;58.90
49813;BME280;35706;52.100;5.056;2022-07-29T05:45:38;101737.94;;;18.22;58.29
49813;BME280;35706;52.100;5.056;2022-07-29T05:48:04;101735.28;;;18.30;58.74
49813;BME280;35706;52.100;5.056;2022-07-29T05:50:29;101728.81;;;18.33;58.01
49813;BME280;35706;52.100;5.056;2022-07-29T05:52:54;101743.59;;;18.19;58.61
49813;BME280;35706;52.100;5.056;2022-07-29T05:55:20;101741.06;;;18.09;58.26
49813;BME280;35706;52.100;5.056;2022-07-29T05:57:45;101735.75;;;17.93;58.94
49813;BME280;35706;52.100;5.056;2022-07-29T06:00:11;101742.56;;;17.96;59.89
49813;BME280;35706;52.100;5.056;2022-07-29T06:02:36;101737.94;;;18.14;58.68
49813;BME280;35706;52.100;5.056;2022-07-29T06:05:02;101734.97;;;18.34;58.10
49813;BME280;35706;52.100;5.056;2022-07-29T06:07:27;101731.28;;;18.43;58.79
49813;BME280;35706;52.100;5.056;2022-07-29T06:09:53;101732.94;;;18.60;56.90
49813;BME280;35706;52.100;5.056;2022-07-29T06:12:18;101739.94;;;18.61;57.38
49813;BME280;35706;52.100;5.056;2022-07-29T06:14:45;101738.13;;;18.54;57.24
49813;BME280;35706;52.100;5.056;2022-07-29T06:17:10;101737.09;;;18.71;57.00
49813;BME280;35706;52.100;5.056;2022-07-29T06:19:37;101734.28;;;18.72;56.76
49813;BME280;35706;52.100;5.056;2022-07-29T06:22:03;101734.13;;;18.33;57.63
49813;BME280;35706;52.100;5.056;2022-07-29T06:24:28;101742.75;;;18.19;57.75
49813;BME280;35706;52.100;5.056;2022-07-29T06:26:54;101736.31;;;18.46;56.89
49813;BME280;35706;52.100;5.056;2022-07-29T06:29:19;101731.28;;;18.67;56.93
49813;BME280;35706;52.100;5.056;2022-07-29T06:31:45;101745.75;;;18.73;56.66
49813;BME280;35706;52.100;5.056;2022-07-29T06:34:10;101748.59;;;18.88;55.40
49813;BME280;35706;52.100;5.056;2022-07-29T06:36:36;101760.25;;;18.95;55.70
49813;BME280;35706;52.100;5.056;2022-07-29T06:39:04;101759.72;;;18.75;56.23
49813;BME280;35706;52.100;5.056;2022-07-29T06:41:30;101762.75;;;18.97;56.24
49813;BME280;35706;52.100;5.056;2022-07-29T06:43:55;101761.91;;;18.96;56.63
49813;BME280;35706;52.100;5.056;2022-07-29T06:46:21;101764.25;;;18.91;56.63
49813;BME280;35706;52.100;5.056;2022-07-29T06:48:47;101770.25;;;18.93;56.26
49813;BME280;35706;52.100;5.056;2022-07-29T06:51:13;101761.59;;;18.99;55.99
49813;BME280;35706;52.100;5.056;2022-07-29T06:53:39;101766.75;;;18.92;55.96
49813;BME280;35706;52.100;5.056;2022-07-29T06:56:06;101774.59;;;18.86;56.54
49813;BME280;35706;52.100;5.056;2022-07-29T06:58:34;101776.09;;;18.80;57.32
49813;BME280;35706;52.100;5.056;2022-07-29T07:01:02;101779.22;;;18.92;56.45
49813;BME280;35706;52.100;5.056;2022-07-29T07:03:28;101775.88;;;18.98;56.57
49813;BME280;35706;52.100;5.056;2022-07-29T07:05:54;101783.72;;;18.91;56.59
49813;BME280;35706;52.100;5.056;2022-07-29T07:08:20;101784.38;;;19.02;56.94
49813;BME280;35706;52.100;5.056;2022-07-29T07:10:47;101794.22;;;19.18;55.96
49813;BME280;35706;52.100;5.056;2022-07-29T07:13:12;101788.22;;;19.16;55.99
49813;BME280;35706;52.100;5.056;2022-07-29T07:15:38;101777.19;;;19.19;56.12
49813;BME280;35706;52.100;5.056;2022-07-29T07:18:04;101782.38;;;19.20;56.67
49813;BME280;35706;52.100;5.056;2022-07-29T07:20:30;101781.16;;;19.39;55.34
49813;BME280;35706;52.100;5.056;2022-07-29T07:22:55;101778.13;;;19.42;55.68
49813;BME280;35706;52.100;5.056;2022-07-29T07:25:21;101776.91;;;19.53;55.34
49813;BME280;35706;52.100;5.056;2022-07-29T07:27:46;101774.09;;;19.55;55.71
49813;BME280;35706;52.100;5.056;2022-07-29T07:30:12;101769.31;;;19.33;56.00
49813;BME280;35706;52.100;5.056;2022-07-29T07:32:38;101770.81;;;19.36;56.12
49813;BME280;35706;52.100;5.056;2022-07-29T07:35:05;101769.81;;;19.37;55.86
49813;BME280;35706;52.100;5.056;2022-07-29T07:37:32;101768.41;;;19.58;55.90
49813;BME280;35706;52.100;5.056;2022-07-29T07:39:57;101770.34;;;19.80;55.04
49813;BME280;35706;52.100;5.056;2022-07-29T07:42:23;101769.72;;;20.01;54.18
49813;BME280;35706;52.100;5.056;2022-07-29T07:44:48;101772.53;;;20.08;54.66
49813;BME280;35706;52.100;5.056;2022-07-29T07:47:15;101767.44;;;19.98;54.61
49813;BME280;35706;52.100;5.056;2022-07-29T07:49:45;101766.34;;;20.07;54.32
49813;BME280;35706;52.100;5.056;2022-07-29T07:52:10;101766.53;;;20.06;53.42
49813;BME280;35706;52.100;5.056;2022-07-29T07:54:36;101768.16;;;20.15;53.72
49813;BME280;35706;52.100;5.056;2022-07-29T07:57:01;101772.28;;;19.95;54.42
49813;BME280;35706;52.100;5.056;2022-07-29T07:59:26;101759.22;;;20.00;54.53
49813;BME280;35706;52.100;5.056;2022-07-29T08:01:52;101759.22;;;20.00;55.03
49813;BME280;35706;52.100;5.056;2022-07-29T08:04:17;101768.59;;;20.19;53.93
49813;BME280;35706;52.100;5.056;2022-07-29T08:06:42;101766.88;;;20.72;52.34
49813;BME280;35706;52.100;5.056;2022-07-29T08:09:08;101754.03;;;20.90;51.95
49813;BME280;35706;52.100;5.056;2022-07-29T08:11:33;101765.13;;;21.17;50.90
49813;BME280;35706;52.100;5.056;2022-07-29T08:13:58;101759.25;;;21.51;50.05
49813;BME280;35706;52.100;5.056;2022-07-29T08:16:26;101761.06;;;21.21;50.44
49813;BME280;35706;52.100;5.056;2022-07-29T08:18:51;101765.88;;;21.55;49.17
49813;BME280;35706;52.100;5.056;2022-07-29T08:21:21;101774.25;;;21.67;49.11
49813;BME280;35706;52.100;5.056;2022-07-29T08:23:48;101775.47;;;22.01;48.55
49813;BME280;35706;52.100;5.056;2022-07-29T08:26:40;101784.28;;;21.95;48.53
49813;BME280;35706;52.100;5.056;2022-07-29T08:29:06;101776.44;;;21.93;49.07
49813;BME280;35706;52.100;5.056;2022-07-29T08:31:31;101776.56;;;22.07;49.24
49813;BME280;35706;52.100;5.056;2022-07-29T08:33:56;101779.38;;;21.84;48.91
49813;BME280;35706;52.100;5.056;2022-07-29T08:36:25;101781.81;;;21.79;49.15
49813;BME280;35706;52.100;5.056;2022-07-29T08:38:50;101781.22;;;21.98;48.53
49813;BME280;35706;52.100;5.056;2022-07-29T08:41:16;101784.03;;;22.11;48.28
49813;BME280;35706;52.100;5.056;2022-07-29T08:43:44;101790.41;;;22.10;48.40
49813;BME280;35706;52.100;5.056;2022-07-29T08:46:09;101781.47;;;22.03;49.06
49813;BME280;35706;52.100;5.056;2022-07-29T08:48:35;101778.34;;;22.00;49.13
49813;BME280;35706;52.100;5.056;2022-07-29T08:51:02;101784.91;;;21.82;48.87
49813;BME280;35706;52.100;5.056;2022-07-29T08:53:28;101778.56;;;21.83;48.82
49813;BME280;35706;52.100;5.056;2022-07-29T08:55:54;101784.81;;;21.90;48.91
49813;BME280;35706;52.100;5.056;2022-07-29T08:58:20;101776.38;;;22.08;48.44
49813;BME280;35706;52.100;5.056;2022-07-29T09:00:51;101773.19;;;22.20;48.59
49813;BME280;35706;52.100;5.056;2022-07-29T09:03:18;101765.56;;;22.16;47.44
49813;BME280;35706;52.100;5.056;2022-07-29T09:05:45;101766.28;;;22.25;47.65
49813;BME280;35706;52.100;5.056;2022-07-29T09:08:12;101773.13;;;22.13;47.71
49813;BME280;35706;52.100;5.056;2022-07-29T09:10:38;101767.50;;;22.23;47.57
49813;BME280;35706;52.100;5.056;2022-07-29T09:13:04;101772.41;;;22.41;47.52
49813;BME280;35706;52.100;5.056;2022-07-29T09:15:30;101770.28;;;22.58;46.79
49813;BME280;35706;52.100;5.056;2022-07-29T09:17:55;101758.66;;;22.72;47.12
49813;BME280;35706;52.100;5.056;2022-07-29T09:20:23;101761.97;;;22.74;47.59
49813;BME280;35706;52.100;5.056;2022-07-29T09:22:49;101756.31;;;22.90;46.94
49813;BME280;35706;52.100;5.056;2022-07-29T09:25:38;101761.47;;;22.92;46.11
49813;BME280;35706;52.100;5.056;2022-07-29T09:28:13;101755.44;;;22.83;45.75
49813;BME280;35706;52.100;5.056;2022-07-29T09:30:53;101757.94;;;22.85;46.37
49813;BME280;35706;52.100;5.056;2022-07-29T09:33:19;101761.72;;;22.97;46.48
49813;BME280;35706;52.100;5.056;2022-07-29T09:35:45;101757.00;;;22.99;46.87
49813;BME280;35706;52.100;5.056;2022-07-29T09:38:12;101765.94;;;22.78;46.74
49813;BME280;35706;52.100;5.056;2022-07-29T09:40:37;101764.56;;;22.89;46.73
49813;BME280;35706;52.100;5.056;2022-07-29T09:43:12;101766.69;;;22.72;46.87
49813;BME280;35706;52.100;5.056;2022-07-29T09:45:39;101776.31;;;22.66;47.69
49813;BME280;35706;52.100;5.056;2022-07-29T09:48:24;101778.69;;;22.76;47.61
49813;BME280;35706;52.100;5.056;2022-07-29T09:50:51;101764.69;;;22.81;46.71
49813;BME280;35706;52.100;5.056;2022-07-29T09:53:31;101767.69;;;22.71;46.79
49813;BME280;35706;52.100;5.056;2022-07-29T09:55:57;101775.31;;;22.67;46.99
49813;BME280;35706;52.100;5.056;2022-07-29T09:58:22;101773.72;;;22.51;46.99
49813;BME280;35706;52.100;5.056;2022-07-29T10:00:49;101769.31;;;22.65;46.80
49813;BME280;35706;52.100;5.056;2022-07-29T10:03:16;101776.19;;;22.74;47.20
49813;BME280;35706;52.100;5.056;2022-07-29T10:05:42;101780.81;;;22.87;47.29
49813;BME280;35706;52.100;5.056;2022-07-29T10:08:09;101780.78;;;22.81;48.18
49813;BME280;35706;52.100;5.056;2022-07-29T10:10:37;101777.69;;;22.84;46.65
49813;BME280;35706;52.100;5.056;2022-07-29T10:13:04;101783.19;;;22.97;46.99
49813;BME280;35706;52.100;5.056;2022-07-29T10:15:32;101771.97;;;23.15;46.87
49813;BME280;35706;52.100;5.056;2022-07-29T10:17:59;101770.38;;;23.21;46.38
49813;BME280;35706;52.100;5.056;2022-07-29T10:20:26;101772.63;;;23.24;45.84
49813;BME280;35706;52.100;5.056;2022-07-29T10:22:53;101776.34;;;23.23;45.61
49813;BME280;35706;52.100;5.056;2022-07-29T10:25:19;101762.13;;;23.22;46.31
49813;BME280;35706;52.100;5.056;2022-07-29T10:27:46;101767.84;;;23.12;46.09
49813;BME280;35706;52.100;5.056;2022-07-29T10:30:13;101762.63;;;23.04;46.44
49813;BME280;35706;52.100;5.056;2022-07-29T10:32:44;101766.06;;;22.98;46.62
49813;BME280;35706;52.100;5.056;2022-07-29T10:35:54;101770.84;;;23.03;47.41
49813;BME280;35706;52.100;5.056;2022-07-29T10:38:33;101772.63;;;22.95;47.14
49813;BME280;35706;52.100;5.056;2022-07-29T10:41:06;101763.91;;;22.87;46.19
49813;BME280;35706;52.100;5.056;2022-07-29T10:43:58;101764.69;;;22.81;47.99
49813;BME280;35706;52.100;5.056;2022-07-29T10:46:24;101762.47;;;22.20;48.44
49813;BME280;35706;52.100;5.056;2022-07-29T10:49:11;101769.47;;;22.57;48.35
49813;BME280;35706;52.100;5.056;2022-07-29T10:52:00;101768.88;;;22.90;47.78
49813;BME280;35706;52.100;5.056;2022-07-29T10:54:46;101770.75;;;23.17;47.21
49813;BME280;35706;52.100;5.056;2022-07-29T10:57:26;101775.53;;;23.22;47.44
49813;BME280;35706;52.100;5.056;2022-07-29T11:05:15;101769.53;;;23.68;46.44
49813;BME280;35706;52.100;5.056;2022-07-29T11:10:33;101755.28;;;23.61;46.55
49813;BME280;35706;52.100;5.056;2022-07-29T11:12:58;101757.00;;;23.75;45.90
49813;BME280;35706;52.100;5.056;2022-07-29T11:15:23;101756.06;;;24.10;45.53
49813;BME280;35706;52.100;5.056;2022-07-29T11:20:46;101750.13;;;24.34;45.47
49813;BME280;35706;52.100;5.056;2022-07-29T11:23:28;101751.78;;;24.49;44.92
49813;BME280;35706;52.100;5.056;2022-07-29T11:31:44;101752.59;;;24.23;44.93
49813;BME280;35706;52.100;5.056;2022-07-29T11:34:16;101750.13;;;24.41;44.94
49813;BME280;35706;52.100;5.056;2022-07-29T11:39:30;101748.69;;;24.85;44.28
49813;BME280;35706;52.100;5.056;2022-07-29T11:45:06;101755.06;;;24.97;44.82
49813;BME280;35706;52.100;5.056;2022-07-29T11:47:40;101746.56;;;25.07;43.23
49813;BME280;35706;52.100;5.056;2022-07-29T11:50:08;101747.84;;;24.98;44.32
49813;BME280;35706;52.100;5.056;2022-07-29T11:52:37;101755.91;;;24.98;44.26
49813;BME280;35706;52.100;5.056;2022-07-29T11:55:09;101751.72;;;25.15;43.92
49813;BME280;35706;52.100;5.056;2022-07-29T11:57:35;101755.47;;;25.21;44.26
49813;BME280;35706;52.100;5.056;2022-07-29T12:00:01;101753.78;;;25.27;44.22
49813;BME280;35706;52.100;5.056;2022-07-29T12:02:41;101754.41;;;25.15;43.61
49813;BME280;35706;52.100;5.056;2022-07-29T12:05:07;101754.38;;;25.35;43.84
49813;BME280;35706;52.100;5.056;2022-07-29T12:07:33;101763.50;;;25.34;43.50
49813;BME280;35706;52.100;5.056;2022-07-29T12:09:59;101765.81;;;25.24;42.28
49813;BME280;35706;52.100;5.056;2022-07-29T12:12:25;101769.72;;;25.28;43.76
49813;BME280;35706;52.100;5.056;2022-07-29T12:14:51;101768.03;;;25.41;43.35
49813;BME280;35706;52.100;5.056;2022-07-29T12:19:51;101772.78;;;25.45;41.96
49813;BME280;35706;52.100;5.056;2022-07-29T12:22:28;101773.59;;;25.46;43.61
49813;BME280;35706;52.100;5.056;2022-07-29T12:24:54;101767.41;;;25.45;42.92
49813;BME280;35706;52.100;5.056;2022-07-29T12:27:19;101778.94;;;25.52;42.60
49813;BME280;35706;52.100;5.056;2022-07-29T12:29:55;101773.66;;;25.77;41.87
49813;BME280;35706;52.100;5.056;2022-07-29T12:32:21;101776.75;;;25.81;42.56
49813;BME280;35706;52.100;5.056;2022-07-29T12:34:46;101769.66;;;26.00;41.83
49813;BME280;35706;52.100;5.056;2022-07-29T12:37:12;101776.63;;;26.14;42.50
49813;BME280;35706;52.100;5.056;2022-07-29T12:39:38;101767.41;;;25.90;42.35
49813;BME280;35706;52.100;5.056;2022-07-29T12:42:14;101758.72;;;26.20;42.28
49813;BME280;35706;52.100;5.056;2022-07-29T12:44:47;101765.25;;;26.37;41.87
49813;BME280;35706;52.100;5.056;2022-07-29T12:47:12;101762.28;;;26.46;41.32
49813;BME280;35706;52.100;5.056;2022-07-29T12:49:38;101762.72;;;26.43;42.16
49813;BME280;35706;52.100;5.056;2022-07-29T12:52:30;101763.09;;;25.89;42.37
49813;BME280;35706;52.100;5.056;2022-07-29T12:54:56;101756.94;;;26.07;42.86
49813;BME280;35706;52.100;5.056;2022-07-29T12:57:21;101757.09;;;26.19;42.47
49813;BME280;35706;52.100;5.056;2022-07-29T13:00:07;101749.97;;;26.31;42.80
49813;BME280;35706;52.100;5.056;2022-07-29T13:02:33;101758.59;;;26.40;42.32
49813;BME280;35706;52.100;5.056;2022-07-29T13:05:00;101755.44;;;26.43;41.80
49813;BME280;35706;52.100;5.056;2022-07-29T13:07:28;101749.50;;;26.34;40.63
49813;BME280;35706;52.100;5.056;2022-07-29T13:10:09;101747.88;;;26.58;42.25
49813;BME280;35706;52.100;5.056;2022-07-29T13:12:35;101752.09;;;26.48;41.26
49813;BME280;35706;52.100;5.056;2022-07-29T13:15:00;101764.03;;;26.65;42.49
49813;BME280;35706;52.100;5.056;2022-07-29T13:17:40;101761.06;;;26.73;41.85
49813;BME280;35706;52.100;5.056;2022-07-29T13:20:08;101752.38;;;26.90;40.82
49813;BME280;35706;52.100;5.056;2022-07-29T13:22:37;101754.38;;;26.94;40.75
49813;BME280;35706;52.100;5.056;2022-07-29T13:25:03;101757.09;;;26.76;41.43
49813;BME280;35706;52.100;5.056;2022-07-29T13:27:30;101754.75;;;26.79;41.16